createdAt,value
2019-03-29T00:00:42.877Z,0.00
2019-03-29T00:01:42.797Z,0.00
2019-03-29T00:02:43.089Z,0.00
2019-03-29T00:03:42.853Z,0.00
2019-03-29T00:04:42.760Z,0.00
2019-03-29T00:05:42.751Z,0.00
2019-03-29T00:06:42.729Z,0.00
2019-03-29T00:07:42.727Z,0.00
2019-03-29T00:08:42.793Z,0.00
2019-03-29T00:09:42.704Z,0.00
2019-03-29T00:10:42.702Z,0.00
2019-03-29T00:11:42.699Z,0.00
2019-03-29T00:12:42.661Z,0.00
2019-03-29T00:13:42.655Z,0.00
2019-03-29T00:14:42.708Z,0.00
2019-03-29T00:15:42.642Z,0.00
2019-03-29T00:16:42.648Z,0.00
2019-03-29T00:17:43.985Z,0.00
2019-03-29T00:18:42.656Z,0.00
2019-03-29T00:19:42.665Z,0.00
2019-03-29T00:20:42.578Z,0.00
2019-03-29T00:21:42.583Z,0.00
2019-03-29T00:22:42.568Z,0.00
2019-03-29T00:23:42.543Z,0.00
2019-03-29T00:24:42.536Z,0.00
2019-03-29T00:25:42.600Z,0.00
2019-03-29T00:26:42.602Z,0.00
2019-03-29T00:27:42.513Z,0.00
2019-03-29T00:28:42.495Z,0.00
2019-03-29T00:29:42.489Z,0.00
2019-03-29T00:31:53.332Z,0.00
2019-03-29T00:32:53.266Z,0.00
2019-03-29T00:33:53.241Z,0.00
2019-03-29T00:34:53.287Z,0.00
2019-03-29T00:35:53.225Z,0.00
2019-03-29T00:36:53.206Z,0.00
2019-03-29T00:37:55.642Z,0.00
2019-03-29T00:38:53.248Z,0.00
2019-03-29T00:39:53.173Z,0.00
2019-03-29T00:40:53.160Z,0.00
2019-03-29T00:41:53.164Z,0.00
2019-03-29T00:42:53.149Z,0.00
2019-03-29T00:43:53.214Z,0.00
2019-03-29T00:44:53.186Z,0.00
2019-03-29T00:45:53.114Z,0.00
2019-03-29T00:46:53.108Z,0.00
2019-03-29T00:47:53.118Z,0.00
2019-03-29T00:48:53.083Z,0.00
2019-03-29T00:49:53.122Z,0.00
2019-03-29T00:50:53.058Z,0.00
2019-03-29T00:51:53.153Z,0.00
2019-03-29T00:52:53.045Z,0.00
2019-03-29T00:53:53.024Z,0.00
2019-03-29T00:54:53.064Z,0.00
2019-03-29T00:55:52.999Z,0.00
2019-03-29T00:56:52.995Z,0.00
2019-03-29T00:57:52.978Z,0.00
2019-03-29T00:58:52.974Z,0.00
2019-03-29T00:59:53.016Z,0.00
2019-03-29T01:00:52.978Z,0.00
2019-03-29T01:01:53.108Z,0.00
2019-03-29T01:02:52.932Z,0.00
2019-03-29T01:03:52.987Z,0.00
2019-03-29T01:04:52.898Z,0.00
2019-03-29T01:05:52.951Z,0.00
2019-03-29T01:06:52.934Z,0.00
2019-03-29T01:08:06.758Z,0.00
2019-03-29T01:08:53.873Z,0.00
2019-03-29T01:09:52.850Z,0.00
2019-03-29T01:10:52.890Z,0.00
2019-03-29T01:11:52.826Z,0.00
2019-03-29T01:12:52.818Z,0.00
2019-03-29T01:13:52.806Z,0.00
2019-03-29T01:14:52.789Z,0.00
2019-03-29T01:15:52.858Z,0.00
2019-03-29T01:16:53.866Z,0.00
2019-03-29T01:17:52.764Z,0.00
2019-03-29T01:18:52.743Z,0.00
2019-03-29T01:19:52.735Z,0.00
2019-03-29T01:20:52.740Z,0.00
2019-03-29T01:21:52.776Z,0.00
2019-03-29T01:22:52.705Z,0.00
2019-03-29T01:23:52.713Z,0.00
2019-03-29T01:24:52.677Z,0.00
2019-03-29T01:25:52.674Z,0.00
2019-03-29T01:26:53.123Z,0.00
2019-03-29T01:27:52.655Z,0.00
2019-03-29T01:28:52.640Z,0.00
2019-03-29T01:29:52.691Z,0.00
2019-03-29T01:30:52.613Z,0.00
2019-03-29T01:31:52.613Z,0.00
2019-03-29T01:32:52.653Z,0.00
2019-03-29T01:33:52.582Z,0.00
2019-03-29T01:34:52.584Z,0.00
2019-03-29T01:35:52.615Z,0.00
2019-03-29T01:36:53.204Z,0.00
2019-03-29T01:37:52.547Z,0.00
2019-03-29T01:38:52.528Z,0.00
2019-03-29T01:39:52.523Z,0.00
2019-03-29T01:40:52.624Z,0.00
2019-03-29T01:41:53.085Z,0.00
2019-03-29T01:42:52.491Z,0.00
2019-03-29T01:43:52.471Z,0.00
2019-03-29T01:44:53.225Z,0.00
2019-03-29T01:45:52.453Z,0.00
2019-03-29T01:46:52.527Z,0.00
2019-03-29T01:47:52.426Z,0.00
2019-03-29T01:48:52.423Z,0.00
2019-03-29T01:49:52.436Z,0.00
2019-03-29T01:50:52.398Z,0.00
2019-03-29T01:51:53.916Z,0.00
2019-03-29T01:52:52.390Z,0.00
2019-03-29T01:53:52.422Z,0.00
2019-03-29T01:54:52.348Z,0.00
2019-03-29T01:55:52.337Z,0.00
2019-03-29T01:56:52.327Z,0.00
2019-03-29T01:57:52.407Z,0.00
2019-03-29T01:58:52.365Z,0.00
2019-03-29T01:59:52.349Z,0.00
2019-03-29T02:00:52.291Z,0.00
2019-03-29T02:01:55.084Z,0.00
2019-03-29T02:02:52.286Z,0.00
2019-03-29T02:03:52.244Z,0.00
2019-03-29T02:04:52.322Z,0.00
2019-03-29T02:05:52.239Z,0.00
2019-03-29T02:06:52.212Z,0.00
2019-03-29T02:07:52.218Z,0.00
2019-03-29T02:08:52.200Z,0.00
2019-03-29T02:09:52.266Z,0.00
2019-03-29T02:10:52.184Z,0.00
2019-03-29T02:11:52.160Z,0.00
2019-03-29T02:12:52.172Z,0.00
2019-03-29T02:13:52.174Z,0.00
2019-03-29T02:14:52.197Z,0.00
2019-03-29T02:15:52.116Z,0.00
2019-03-29T02:16:52.115Z,0.00
2019-03-29T02:17:52.181Z,0.00
2019-03-29T02:18:52.100Z,0.00
2019-03-29T02:19:52.092Z,0.00
2019-03-29T02:20:52.068Z,0.00
2019-03-29T02:21:52.111Z,0.00
2019-03-29T02:22:52.118Z,0.00
2019-03-29T02:23:52.145Z,0.00
2019-03-29T02:24:52.014Z,0.00
2019-03-29T02:25:52.085Z,0.00
2019-03-29T02:26:52.008Z,0.00
2019-03-29T02:27:52.284Z,0.00
2019-03-29T02:28:51.970Z,0.00
2019-03-29T02:29:51.970Z,0.00
2019-03-29T02:30:52.058Z,0.00
2019-03-29T02:31:51.948Z,0.00
2019-03-29T02:32:52.799Z,0.00
2019-03-29T02:33:51.921Z,0.00
2019-03-29T02:34:51.918Z,0.00
2019-03-29T02:35:51.926Z,0.00
2019-03-29T02:36:52.252Z,0.00
2019-03-29T02:37:51.876Z,0.00
2019-03-29T02:38:55.535Z,0.00
2019-03-29T02:40:02.861Z,0.00
2019-03-29T02:40:51.965Z,0.00
2019-03-29T02:41:51.839Z,0.00
2019-03-29T02:42:51.947Z,0.00
2019-03-29T02:43:51.840Z,0.00
2019-03-29T02:44:51.796Z,0.00
2019-03-29T02:45:51.828Z,0.00
2019-03-29T02:46:53.563Z,0.00
2019-03-29T02:47:51.778Z,0.00
2019-03-29T02:48:51.770Z,0.00
2019-03-29T02:49:51.788Z,0.00
2019-03-29T02:50:51.727Z,0.00
2019-03-29T02:51:51.727Z,0.00
2019-03-29T02:52:51.781Z,0.00
2019-03-29T02:53:51.771Z,0.00
2019-03-29T02:54:51.692Z,0.00
2019-03-29T02:55:51.707Z,0.00
2019-03-29T02:56:51.688Z,0.00
2019-03-29T02:57:51.658Z,0.00
2019-03-29T02:58:51.725Z,0.00
2019-03-29T02:59:51.649Z,0.00
2019-03-29T03:00:51.624Z,0.00
2019-03-29T03:01:51.605Z,0.00
2019-03-29T03:02:51.602Z,0.00
2019-03-29T03:03:51.588Z,0.00
2019-03-29T03:04:51.629Z,0.00
2019-03-29T03:05:51.659Z,0.00
2019-03-29T03:06:51.550Z,0.00
2019-03-29T03:07:51.538Z,0.00
2019-03-29T03:08:51.528Z,0.00
2019-03-29T03:09:51.649Z,0.00
2019-03-29T03:10:51.615Z,0.00
2019-03-29T03:11:51.510Z,0.00
2019-03-29T03:12:51.517Z,0.00
2019-03-29T03:13:51.474Z,0.00
2019-03-29T03:14:51.488Z,0.00
2019-03-29T03:15:51.462Z,0.00
2019-03-29T03:16:51.537Z,0.00
2019-03-29T03:17:51.452Z,0.00
2019-03-29T03:18:51.554Z,0.00
2019-03-29T03:19:51.413Z,0.00
2019-03-29T03:20:51.503Z,0.00
2019-03-29T03:21:51.446Z,0.00
2019-03-29T03:22:51.397Z,0.00
2019-03-29T03:23:51.376Z,0.00
2019-03-29T03:24:51.360Z,0.00
2019-03-29T03:25:51.436Z,0.00
2019-03-29T03:26:51.338Z,0.00
2019-03-29T03:27:51.417Z,0.00
2019-03-29T03:28:51.325Z,0.00
2019-03-29T03:29:51.310Z,0.00
2019-03-29T03:30:51.285Z,0.00
2019-03-29T03:31:51.309Z,0.00
2019-03-29T03:32:51.266Z,0.00
2019-03-29T03:33:51.311Z,0.00
2019-03-29T03:34:51.493Z,0.00
2019-03-29T03:35:51.254Z,0.00
2019-03-29T03:36:51.434Z,0.00
2019-03-29T03:37:51.219Z,0.00
2019-03-29T03:38:51.308Z,0.00
2019-03-29T03:39:51.217Z,0.00
2019-03-29T03:40:51.206Z,0.00
2019-03-29T03:41:51.167Z,0.00
2019-03-29T03:42:51.180Z,0.00
2019-03-29T03:43:51.147Z,0.00
2019-03-29T03:44:51.215Z,0.00
2019-03-29T03:45:51.128Z,0.00
2019-03-29T03:46:51.159Z,0.00
2019-03-29T03:47:51.102Z,0.00
2019-03-29T03:48:51.089Z,0.00
2019-03-29T03:49:51.081Z,0.00
2019-03-29T03:50:51.082Z,0.00
2019-03-29T03:51:51.121Z,0.00
2019-03-29T03:52:51.051Z,0.00
2019-03-29T03:53:51.125Z,0.00
2019-03-29T03:54:51.047Z,0.00
2019-03-29T03:55:51.019Z,0.00
2019-03-29T03:56:51.013Z,0.00
2019-03-29T03:57:51.017Z,0.00
2019-03-29T03:58:50.984Z,0.00
2019-03-29T03:59:51.063Z,0.00
2019-03-29T04:00:50.956Z,0.00
2019-03-29T04:01:50.966Z,0.00
2019-03-29T04:02:51.043Z,0.00
2019-03-29T04:03:51.115Z,0.00
2019-03-29T04:04:50.924Z,0.00
2019-03-29T04:05:50.968Z,0.00
2019-03-29T04:06:50.907Z,0.00
2019-03-29T04:07:50.888Z,0.00
2019-03-29T04:08:50.887Z,0.00
2019-03-29T04:09:50.878Z,0.00
2019-03-29T04:10:50.918Z,0.00
2019-03-29T04:11:50.850Z,0.00
2019-03-29T04:12:50.826Z,0.00
2019-03-29T04:13:50.823Z,0.00
2019-03-29T04:14:50.803Z,0.00
2019-03-29T04:15:50.799Z,0.00
2019-03-29T04:16:50.869Z,0.00
2019-03-29T04:17:50.775Z,0.00
2019-03-29T04:18:50.876Z,0.00
2019-03-29T04:19:50.748Z,0.00
2019-03-29T04:20:50.745Z,0.00
2019-03-29T04:21:50.825Z,0.00
2019-03-29T04:22:50.733Z,0.00
2019-03-29T04:23:50.756Z,0.00
2019-03-29T04:24:50.704Z,0.00
2019-03-29T04:25:50.690Z,0.00
2019-03-29T04:26:50.694Z,0.00
2019-03-29T04:27:50.765Z,0.00
2019-03-29T04:29:03.475Z,0.00
2019-03-29T04:29:51.641Z,0.00
2019-03-29T04:30:50.655Z,0.00
2019-03-29T04:31:50.628Z,0.00
2019-03-29T04:32:50.620Z,0.00
2019-03-29T04:33:50.672Z,0.00
2019-03-29T04:34:50.759Z,0.00
2019-03-29T04:35:50.608Z,0.00
2019-03-29T04:36:50.556Z,0.00
2019-03-29T04:37:50.551Z,0.00
2019-03-29T04:38:50.623Z,0.00
2019-03-29T04:40:06.391Z,0.00
2019-03-29T04:40:51.522Z,0.00
2019-03-29T04:41:50.507Z,0.00
2019-03-29T04:42:50.500Z,0.00
2019-03-29T04:43:50.497Z,0.00
2019-03-29T04:44:50.561Z,0.00
2019-03-29T04:45:50.480Z,0.00
2019-03-29T04:46:50.463Z,0.00
2019-03-29T04:47:50.438Z,5.62
2019-03-29T04:48:50.429Z,5.62
2019-03-29T04:49:50.417Z,5.62
2019-03-29T04:50:50.510Z,5.62
2019-03-29T04:51:50.399Z,5.62
2019-03-29T04:52:50.386Z,5.62
2019-03-29T04:53:50.392Z,5.62
2019-03-29T04:54:50.373Z,5.62
2019-03-29T04:55:50.401Z,11.25
2019-03-29T04:56:50.354Z,11.25
2019-03-29T04:57:50.331Z,11.25
2019-03-29T04:58:50.317Z,11.25
2019-03-29T04:59:50.309Z,11.25
2019-03-29T05:00:50.293Z,11.25
2019-03-29T05:01:50.342Z,11.25
2019-03-29T05:02:50.335Z,16.88
2019-03-29T05:03:50.256Z,16.88
2019-03-29T05:04:50.255Z,16.88
2019-03-29T05:05:50.252Z,16.88
2019-03-29T05:06:50.325Z,22.50
2019-03-29T05:07:50.230Z,22.50
2019-03-29T05:08:50.220Z,22.50
2019-03-29T05:09:50.214Z,28.12
2019-03-29T05:10:50.189Z,28.12
2019-03-29T05:11:50.182Z,33.75
2019-03-29T05:12:50.247Z,33.75
2019-03-29T05:13:50.146Z,33.75
2019-03-29T05:14:50.138Z,33.75
2019-03-29T05:15:50.133Z,33.75
2019-03-29T05:16:50.124Z,39.38
2019-03-29T05:17:50.130Z,39.38
2019-03-29T05:18:50.176Z,39.38
2019-03-29T05:19:50.129Z,39.38
2019-03-29T05:20:50.095Z,39.38
2019-03-29T05:21:50.070Z,45.00
2019-03-29T05:22:50.062Z,45.00
2019-03-29T05:23:50.087Z,45.00
2019-03-29T05:24:50.041Z,50.62
2019-03-29T05:25:50.021Z,50.62
2019-03-29T05:26:50.012Z,50.62
2019-03-29T05:27:49.996Z,56.25
2019-03-29T05:28:49.991Z,56.25
2019-03-29T05:29:50.104Z,56.25
2019-03-29T05:30:49.970Z,61.88
2019-03-29T05:31:49.966Z,61.88
2019-03-29T05:32:52.539Z,61.88
2019-03-29T05:33:49.949Z,67.50
2019-03-29T05:34:50.048Z,67.50
2019-03-29T05:35:49.948Z,67.50
2019-03-29T05:36:49.892Z,67.50
2019-03-29T05:37:49.889Z,73.12
2019-03-29T05:38:49.875Z,73.12
2019-03-29T05:39:49.870Z,73.12
2019-03-29T05:40:49.903Z,78.75
2019-03-29T05:41:49.853Z,84.38
2019-03-29T05:42:49.836Z,84.38
2019-03-29T05:43:49.823Z,84.38
2019-03-29T05:44:49.818Z,90.00
2019-03-29T05:45:49.802Z,90.00
2019-03-29T05:46:49.848Z,101.25
2019-03-29T05:47:49.823Z,106.88
2019-03-29T05:48:49.763Z,106.88
2019-03-29T05:49:49.752Z,106.88
2019-03-29T05:50:49.743Z,106.88
2019-03-29T05:51:49.744Z,112.50
2019-03-29T05:52:49.789Z,112.50
2019-03-29T05:53:49.744Z,112.50
2019-03-29T05:54:49.692Z,118.12
2019-03-29T05:55:49.707Z,118.12
2019-03-29T05:56:49.727Z,123.75
2019-03-29T05:57:49.733Z,123.75
2019-03-29T05:58:49.802Z,129.38
2019-03-29T05:59:49.641Z,135.00
2019-03-29T06:00:50.049Z,135.00
2019-03-29T06:01:49.643Z,129.38
2019-03-29T06:02:49.825Z,129.38
2019-03-29T06:03:49.630Z,129.38
2019-03-29T06:04:49.621Z,135.00
2019-03-29T06:05:49.643Z,135.00
2019-03-29T06:06:49.712Z,135.00
2019-03-29T06:07:49.662Z,129.38
2019-03-29T06:08:49.540Z,129.38
2019-03-29T06:09:49.539Z,129.38
2019-03-29T06:10:49.894Z,123.75
2019-03-29T06:11:49.523Z,123.75
2019-03-29T06:12:49.630Z,123.75
2019-03-29T06:13:49.548Z,129.38
2019-03-29T06:14:49.507Z,123.75
2019-03-29T06:15:49.461Z,123.75
2019-03-29T06:16:49.446Z,129.38
2019-03-29T06:17:49.519Z,129.38
2019-03-29T06:18:49.511Z,135.00
2019-03-29T06:19:49.426Z,135.00
2019-03-29T06:20:49.420Z,135.00
2019-03-29T06:21:49.392Z,135.00
2019-03-29T06:22:49.463Z,140.62
2019-03-29T06:23:49.371Z,146.25
2019-03-29T06:24:49.385Z,146.25
2019-03-29T06:25:49.441Z,151.88
2019-03-29T06:26:49.353Z,157.50
2019-03-29T06:27:49.394Z,157.50
2019-03-29T06:28:49.332Z,157.50
2019-03-29T06:29:49.308Z,157.50
2019-03-29T06:30:49.385Z,157.50
2019-03-29T06:31:49.301Z,157.50
2019-03-29T06:32:49.382Z,163.12
2019-03-29T06:33:49.332Z,168.75
2019-03-29T06:34:49.251Z,174.38
2019-03-29T06:35:49.242Z,174.38
2019-03-29T06:36:49.238Z,180.00
2019-03-29T06:37:49.247Z,180.00
2019-03-29T06:38:49.302Z,185.62
2019-03-29T06:39:49.213Z,185.62
2019-03-29T06:41:01.762Z,191.25
2019-03-29T06:41:50.219Z,196.88
2019-03-29T06:42:49.164Z,202.50
2019-03-29T06:43:49.170Z,208.12
2019-03-29T06:44:49.212Z,208.12
2019-03-29T06:45:49.134Z,208.12
2019-03-29T06:46:49.115Z,208.12
2019-03-29T06:47:49.121Z,208.12
2019-03-29T06:48:49.102Z,208.12
2019-03-29T06:49:49.087Z,208.12
2019-03-29T06:50:49.278Z,208.12
2019-03-29T06:51:49.094Z,208.12
2019-03-29T06:52:49.054Z,219.38
2019-03-29T06:53:52.508Z,230.62
2019-03-29T06:54:49.041Z,241.88
2019-03-29T06:55:49.114Z,247.50
2019-03-29T06:56:49.000Z,247.50
2019-03-29T06:57:49.008Z,247.50
2019-03-29T06:58:48.991Z,247.50
2019-03-29T06:59:48.983Z,241.88
2019-03-29T07:00:49.033Z,241.88
2019-03-29T07:01:48.952Z,241.88
2019-03-29T07:02:48.972Z,247.50
2019-03-29T07:03:48.926Z,247.50
2019-03-29T07:04:48.937Z,241.88
2019-03-29T07:05:48.987Z,236.25
2019-03-29T07:06:48.912Z,236.25
2019-03-29T07:07:48.885Z,230.62
2019-03-29T07:08:48.923Z,236.25
2019-03-29T07:09:48.868Z,230.62
2019-03-29T07:10:48.869Z,236.25
2019-03-29T07:11:48.895Z,241.88
2019-03-29T07:12:48.887Z,247.50
2019-03-29T07:13:57.397Z,258.75
2019-03-29T07:14:49.953Z,270.00
2019-03-29T07:15:48.937Z,275.62
2019-03-29T07:16:48.801Z,275.62
2019-03-29T07:17:48.840Z,275.62
2019-03-29T07:18:48.758Z,275.62
2019-03-29T07:19:48.779Z,275.62
2019-03-29T07:20:48.740Z,275.62
2019-03-29T07:21:48.744Z,275.62
2019-03-29T07:22:48.739Z,281.25
2019-03-29T07:23:48.860Z,286.88
2019-03-29T07:24:48.692Z,281.25
2019-03-29T07:25:48.697Z,286.88
2019-03-29T07:26:48.690Z,309.38
2019-03-29T07:27:52.274Z,303.75
2019-03-29T07:28:49.093Z,309.38
2019-03-29T07:29:48.748Z,309.38
2019-03-29T07:30:49.519Z,309.38
2019-03-29T07:31:49.485Z,309.38
2019-03-29T07:32:48.625Z,309.38
2019-03-29T07:33:48.612Z,309.38
2019-03-29T07:34:49.337Z,303.75
2019-03-29T07:35:48.647Z,298.12
2019-03-29T07:36:48.576Z,292.50
2019-03-29T07:37:48.558Z,286.88
2019-03-29T07:38:48.562Z,286.88
2019-03-29T07:39:48.545Z,292.50
2019-03-29T07:40:49.262Z,303.75
2019-03-29T07:41:48.890Z,309.38
2019-03-29T07:42:48.841Z,320.62
2019-03-29T07:43:48.797Z,320.62
2019-03-29T07:44:48.929Z,331.88
2019-03-29T07:45:48.704Z,326.25
2019-03-29T07:46:50.046Z,326.25
2019-03-29T07:47:49.574Z,326.25
2019-03-29T07:48:53.250Z,320.62
2019-03-29T07:49:48.658Z,320.62
2019-03-29T07:50:48.474Z,320.62
2019-03-29T07:51:48.412Z,326.25
2019-03-29T07:52:48.388Z,331.88
2019-03-29T07:53:48.377Z,348.75
2019-03-29T07:54:48.453Z,365.62
2019-03-29T07:55:48.378Z,376.88
2019-03-29T07:56:48.365Z,393.75
2019-03-29T07:57:48.332Z,405.00
2019-03-29T07:58:48.395Z,421.88
2019-03-29T07:59:48.313Z,433.12
2019-03-29T08:00:48.412Z,433.12
2019-03-29T08:01:48.314Z,433.12
2019-03-29T08:02:48.288Z,444.38
2019-03-29T08:03:51.226Z,450.00
2019-03-29T08:04:48.255Z,466.88
2019-03-29T08:05:48.370Z,478.12
2019-03-29T08:06:48.270Z,489.38
2019-03-29T08:07:48.253Z,495.00
2019-03-29T08:08:48.260Z,489.38
2019-03-29T08:09:48.204Z,478.12
2019-03-29T08:10:48.308Z,466.88
2019-03-29T08:11:48.189Z,455.62
2019-03-29T08:12:49.305Z,455.62
2019-03-29T08:13:48.186Z,466.88
2019-03-29T08:14:48.192Z,483.75
2019-03-29T08:15:48.226Z,500.62
2019-03-29T08:16:48.246Z,511.88
2019-03-29T08:17:48.133Z,517.50
2019-03-29T08:18:48.143Z,534.38
2019-03-29T08:20:03.914Z,551.25
2019-03-29T08:20:49.148Z,568.12
2019-03-29T08:21:48.074Z,568.12
2019-03-29T08:22:48.059Z,556.88
2019-03-29T08:23:48.060Z,540.00
2019-03-29T08:24:48.095Z,528.75
2019-03-29T08:25:48.059Z,523.12
2019-03-29T08:26:48.096Z,528.75
2019-03-29T08:27:48.055Z,534.38
2019-03-29T08:28:48.066Z,534.38
2019-03-29T08:29:48.026Z,523.12
2019-03-29T08:30:47.971Z,506.25
2019-03-29T08:31:47.977Z,500.62
2019-03-29T08:32:47.949Z,500.62
2019-03-29T08:33:47.935Z,506.25
2019-03-29T08:34:48.200Z,517.50
2019-03-29T08:35:47.982Z,517.50
2019-03-29T08:36:47.969Z,523.12
2019-03-29T08:37:47.898Z,528.75
2019-03-29T08:38:47.882Z,534.38
2019-03-29T08:39:47.879Z,534.38
2019-03-29T08:40:47.929Z,534.38
2019-03-29T08:41:59.413Z,540.00
2019-03-29T08:42:48.832Z,540.00
2019-03-29T08:43:47.898Z,545.62
2019-03-29T08:44:47.820Z,540.00
2019-03-29T08:45:47.813Z,540.00
2019-03-29T08:46:47.797Z,556.88
2019-03-29T08:47:47.803Z,585.00
2019-03-29T08:48:47.787Z,585.00
2019-03-29T08:49:47.938Z,551.25
2019-03-29T08:50:47.749Z,528.75
2019-03-29T08:51:48.009Z,517.50
2019-03-29T08:52:47.735Z,540.00
2019-03-29T08:53:47.802Z,562.50
2019-03-29T08:54:51.070Z,551.25
2019-03-29T08:55:47.695Z,568.12
2019-03-29T08:56:47.698Z,579.38
2019-03-29T08:57:47.670Z,596.25
2019-03-29T08:58:47.659Z,607.50
2019-03-29T08:59:47.734Z,618.75
2019-03-29T09:00:47.672Z,624.38
2019-03-29T09:01:47.799Z,613.12
2019-03-29T09:02:47.637Z,601.88
2019-03-29T09:04:02.756Z,573.75
2019-03-29T09:04:48.598Z,551.25
2019-03-29T09:05:47.583Z,540.00
2019-03-29T09:06:53.752Z,540.00
2019-03-29T09:07:48.596Z,534.38
2019-03-29T09:08:47.560Z,534.38
2019-03-29T09:09:47.647Z,534.38
2019-03-29T09:10:47.533Z,534.38
2019-03-29T09:11:47.659Z,511.88
2019-03-29T09:12:47.651Z,511.88
2019-03-29T09:13:47.507Z,500.62
2019-03-29T09:14:47.523Z,489.38
2019-03-29T09:15:47.489Z,478.12
2019-03-29T09:16:47.467Z,472.50
2019-03-29T09:17:47.451Z,466.88
2019-03-29T09:18:47.514Z,466.88
2019-03-29T09:19:47.457Z,461.25
2019-03-29T09:20:47.423Z,455.62
2019-03-29T09:21:47.444Z,450.00
2019-03-29T09:22:47.393Z,450.00
2019-03-29T09:23:47.479Z,444.38
2019-03-29T09:24:47.407Z,438.75
2019-03-29T09:25:47.375Z,438.75
2019-03-29T09:26:47.348Z,438.75
2019-03-29T09:27:47.481Z,433.12
2019-03-29T09:28:47.415Z,421.88
2019-03-29T09:29:47.410Z,410.62
2019-03-29T09:30:47.316Z,410.62
2019-03-29T09:31:47.378Z,410.62
2019-03-29T09:32:50.932Z,416.25
2019-03-29T09:33:47.270Z,433.12
2019-03-29T09:34:47.316Z,438.75
2019-03-29T09:35:47.284Z,438.75
2019-03-29T09:36:47.283Z,438.75
2019-03-29T09:37:47.282Z,427.50
2019-03-29T09:38:47.334Z,416.25
2019-03-29T09:39:47.299Z,416.25
2019-03-29T09:40:57.707Z,421.88
2019-03-29T09:41:48.211Z,421.88
2019-03-29T09:42:50.574Z,427.50
2019-03-29T09:43:48.193Z,427.50
2019-03-29T09:44:47.293Z,421.88
2019-03-29T09:45:47.282Z,410.62
2019-03-29T09:46:47.509Z,399.38
2019-03-29T09:47:47.302Z,393.75
2019-03-29T09:48:47.495Z,388.12
2019-03-29T09:49:47.286Z,376.88
2019-03-29T09:50:50.582Z,371.25
2019-03-29T09:51:47.319Z,382.50
2019-03-29T09:52:47.461Z,393.75
2019-03-29T09:53:47.249Z,393.75
2019-03-29T09:54:47.248Z,382.50
2019-03-29T09:55:47.240Z,371.25
2019-03-29T09:56:48.447Z,348.75
2019-03-29T09:57:47.238Z,354.38
2019-03-29T09:58:47.439Z,360.00
2019-03-29T09:59:47.269Z,360.00
2019-03-29T10:00:47.233Z,360.00
2019-03-29T10:01:47.225Z,365.62
2019-03-29T10:02:46.944Z,365.62
2019-03-29T10:04:01.197Z,365.62
2019-03-29T10:04:46.913Z,376.88
2019-03-29T10:05:47.410Z,382.50
2019-03-29T10:06:46.909Z,388.12
2019-03-29T10:07:49.466Z,399.38
2019-03-29T10:08:46.914Z,399.38
2019-03-29T10:09:46.925Z,416.25
2019-03-29T10:10:46.934Z,421.88
2019-03-29T10:11:46.843Z,427.50
2019-03-29T10:12:46.950Z,427.50
2019-03-29T10:13:46.828Z,421.88
2019-03-29T10:14:46.828Z,427.50
2019-03-29T10:15:46.785Z,433.12
2019-03-29T10:16:46.782Z,438.75
2019-03-29T10:17:46.782Z,438.75
2019-03-29T10:18:46.857Z,450.00
2019-03-29T10:19:49.746Z,461.25
2019-03-29T10:20:46.796Z,472.50
2019-03-29T10:21:46.739Z,466.88
2019-03-29T10:22:46.718Z,455.62
2019-03-29T10:23:46.703Z,455.62
2019-03-29T10:24:46.799Z,461.25
2019-03-29T10:25:46.692Z,466.88
2019-03-29T10:26:46.670Z,472.50
2019-03-29T10:27:46.769Z,483.75
2019-03-29T10:28:46.681Z,483.75
2019-03-29T10:29:46.633Z,483.75
2019-03-29T10:30:47.163Z,478.12
2019-03-29T10:31:46.604Z,472.50
2019-03-29T10:32:46.603Z,478.12
2019-03-29T10:33:49.120Z,483.75
2019-03-29T10:34:46.587Z,489.38
2019-03-29T10:35:52.305Z,483.75
2019-03-29T10:36:47.825Z,489.38
2019-03-29T10:37:46.642Z,506.25
2019-03-29T10:38:46.533Z,506.25
2019-03-29T10:39:46.567Z,500.62
2019-03-29T10:40:46.514Z,489.38
2019-03-29T10:41:46.663Z,483.75
2019-03-29T10:42:57.013Z,495.00
2019-03-29T10:43:47.484Z,517.50
2019-03-29T10:44:49.280Z,540.00
2019-03-29T10:45:46.522Z,556.88
2019-03-29T10:46:46.451Z,556.88
2019-03-29T10:47:46.543Z,551.25
2019-03-29T10:48:46.412Z,556.88
2019-03-29T10:49:46.823Z,551.25
2019-03-29T10:50:46.407Z,545.62
2019-03-29T10:51:46.409Z,551.25
2019-03-29T10:52:46.378Z,562.50
2019-03-29T10:53:46.474Z,562.50
2019-03-29T10:54:49.647Z,556.88
2019-03-29T10:55:46.351Z,551.25
2019-03-29T10:56:46.347Z,551.25
2019-03-29T10:57:46.327Z,551.25
2019-03-29T10:58:46.313Z,540.00
2019-03-29T10:59:46.377Z,534.38
2019-03-29T11:00:46.378Z,534.38
2019-03-29T11:01:46.273Z,511.88
2019-03-29T11:02:46.263Z,478.12
2019-03-29T11:03:46.276Z,455.62
2019-03-29T11:04:46.263Z,438.75
2019-03-29T11:05:46.245Z,421.88
2019-03-29T11:06:46.307Z,421.88
2019-03-29T11:07:46.212Z,393.75
2019-03-29T11:08:46.260Z,371.25
2019-03-29T11:09:46.251Z,360.00
2019-03-29T11:10:46.871Z,360.00
2019-03-29T11:11:46.205Z,388.12
2019-03-29T11:12:46.290Z,410.62
2019-03-29T11:13:46.264Z,433.12
2019-03-29T11:14:46.153Z,455.62
2019-03-29T11:15:46.112Z,489.38
2019-03-29T11:16:46.131Z,523.12
2019-03-29T11:17:46.105Z,573.75
2019-03-29T11:18:46.090Z,579.38
2019-03-29T11:19:46.242Z,556.88
2019-03-29T11:20:46.065Z,511.88
2019-03-29T11:21:46.054Z,472.50
2019-03-29T11:22:46.039Z,455.62
2019-03-29T11:23:46.045Z,455.62
2019-03-29T11:24:46.030Z,478.12
2019-03-29T11:25:48.575Z,495.00
2019-03-29T11:26:46.057Z,506.25
2019-03-29T11:27:46.051Z,511.88
2019-03-29T11:28:45.986Z,495.00
2019-03-29T11:29:45.972Z,461.25
2019-03-29T11:30:46.047Z,427.50
2019-03-29T11:31:45.945Z,405.00
2019-03-29T11:32:45.930Z,393.75
2019-03-29T11:33:45.927Z,388.12
2019-03-29T11:34:45.910Z,399.38
2019-03-29T11:35:45.958Z,427.50
2019-03-29T11:36:45.890Z,461.25
2019-03-29T11:37:45.878Z,506.25
2019-03-29T11:38:45.860Z,556.88
2019-03-29T11:39:45.867Z,585.00
2019-03-29T11:40:45.917Z,601.88
2019-03-29T11:41:45.846Z,601.88
2019-03-29T11:42:45.912Z,601.88
2019-03-29T11:43:45.820Z,596.25
2019-03-29T11:44:45.802Z,579.38
2019-03-29T11:45:45.811Z,573.75
2019-03-29T11:46:45.823Z,579.38
2019-03-29T11:47:45.767Z,585.00
2019-03-29T11:48:45.833Z,601.88
2019-03-29T11:49:45.767Z,607.50
2019-03-29T11:50:45.734Z,585.00
2019-03-29T11:51:45.722Z,568.12
2019-03-29T11:52:45.716Z,556.88
2019-03-29T11:53:45.724Z,551.25
2019-03-29T11:54:45.758Z,551.25
2019-03-29T11:55:45.996Z,556.88
2019-03-29T11:56:47.589Z,562.50
2019-03-29T11:57:45.788Z,556.88
2019-03-29T11:58:45.729Z,540.00
2019-03-29T11:59:45.696Z,517.50
2019-03-29T12:00:45.620Z,506.25
2019-03-29T12:01:45.606Z,500.62
2019-03-29T12:02:45.614Z,495.00
2019-03-29T12:03:45.582Z,489.38
2019-03-29T12:04:47.393Z,472.50
2019-03-29T12:05:45.577Z,450.00
2019-03-29T12:06:45.563Z,433.12
2019-03-29T12:07:45.539Z,410.62
2019-03-29T12:08:45.564Z,393.75
2019-03-29T12:09:45.671Z,382.50
2019-03-29T12:10:45.576Z,371.25
2019-03-29T12:11:45.498Z,360.00
2019-03-29T12:12:45.511Z,371.25
2019-03-29T12:13:45.475Z,393.75
2019-03-29T12:14:45.479Z,433.12
2019-03-29T12:15:45.473Z,450.00
2019-03-29T12:16:45.517Z,444.38
2019-03-29T12:17:45.443Z,444.38
2019-03-29T12:18:45.470Z,433.12
2019-03-29T12:19:45.402Z,427.50
2019-03-29T12:20:45.458Z,427.50
2019-03-29T12:21:45.410Z,438.75
2019-03-29T12:22:45.474Z,438.75
2019-03-29T12:23:45.447Z,450.00
2019-03-29T12:24:45.346Z,478.12
2019-03-29T12:25:45.353Z,511.88
2019-03-29T12:26:45.373Z,545.62
2019-03-29T12:27:46.280Z,585.00
2019-03-29T12:28:45.308Z,618.75
2019-03-29T12:29:45.300Z,635.62
2019-03-29T12:30:45.307Z,630.00
2019-03-29T12:31:45.277Z,596.25
2019-03-29T12:32:45.293Z,551.25
2019-03-29T12:33:45.325Z,511.88
2019-03-29T12:34:45.367Z,478.12
2019-03-29T12:35:45.261Z,444.38
2019-03-29T12:36:46.173Z,427.50
2019-03-29T12:37:45.318Z,416.25
2019-03-29T12:38:45.338Z,421.88
2019-03-29T12:39:45.519Z,416.25
2019-03-29T12:40:45.417Z,427.50
2019-03-29T12:41:45.231Z,433.12
2019-03-29T12:42:45.151Z,433.12
2019-03-29T12:43:55.502Z,427.50
2019-03-29T12:44:46.370Z,427.50
2019-03-29T12:45:45.127Z,433.12
2019-03-29T12:46:45.141Z,450.00
2019-03-29T12:47:45.384Z,455.62
2019-03-29T12:48:45.145Z,450.00
2019-03-29T12:49:45.070Z,450.00